Time;durP1;ratioP1;P1;durP2;ratioP2;P2;SDS_P1;SDS_P2;PMS_P1;PMS_P2;Temp;Humidity;BMP_temperature;BMP_pressure;BME280_temperature;BME280_humidity;BME280_pressure;Samples;Min_cycle;Max_cycle;Signal;HPM_P1;HPM_P2
2022/03/14 00:00:51;;;;;;;31.62;13.83;;;;;;;;;;1731304;83;21523;-69
2022/03/14 00:03:20;;;;;;;32.23;14.78;;;;;;;;;;1731190;81;21068;-69
2022/03/14 00:05:46;;;;;;;28.87;13.30;;;;;;;;;;1731427;83;21005;-69
2022/03/14 00:08:13;;;;;;;28.10;12.65;;;;;;;;;;1731470;82;21024;-69
2022/03/14 00:10:41;;;;;;;36.03;15.75;;;;;;;;;;1731001;82;21497;-69
2022/03/14 00:13:10;;;;;;;28.55;12.75;;;;;;;;;;1731107;82;21028;-69
2022/03/14 00:15:40;;;;;;;29.60;12.95;;;;;;;;;;1731096;81;21076;-69
2022/03/14 00:18:08;;;;;;;33.58;14.40;;;;;;;;;;1731297;82;21648;-68
2022/03/14 00:20:35;;;;;;;35.00;15.35;;;;;;;;;;1731005;82;21068;-70
2022/03/14 00:23:02;;;;;;;24.27;11.48;;;;;;;;;;1731315;83;21009;-70
2022/03/14 00:25:30;;;;;;;24.98;11.57;;;;;;;;;;1731175;82;21110;-69
2022/03/14 00:27:56;;;;;;;22.90;11.00;;;;;;;;;;1731294;82;21592;-69
2022/03/14 00:30:23;;;;;;;24.80;12.33;;;;;;;;;;1731083;83;21135;-69
2022/03/14 00:32:50;;;;;;;24.52;11.12;;;;;;;;;;1731259;83;21088;-69
2022/03/14 00:35:16;;;;;;;23.40;11.00;;;;;;;;;;1731229;83;21650;-70
2022/03/14 00:37:43;;;;;;;21.02;9.75;;;;;;;;;;1730943;82;21547;-70
2022/03/14 00:40:10;;;;;;;20.48;10.03;;;;;;;;;;1731078;83;21655;-70
2022/03/14 00:42:43;;;;;;;26.82;12.35;;;;;;;;;;1730964;82;21076;-70
2022/03/14 00:45:07;;;;;;;22.90;9.83;;;;;;;;;;1730241;82;21016;-69
2022/03/14 00:47:34;;;;;;;23.70;10.32;;;;;;;;;;1730967;82;21040;-68
2022/03/14 00:50:01;;;;;;;16.97;8.75;;;;;;;;;;1730930;83;21075;-69
2022/03/14 00:52:28;;;;;;;19.05;9.08;;;;;;;;;;1731299;82;20985;-69
2022/03/14 00:54:54;;;;;;;19.35;9.08;;;;;;;;;;1730913;83;21020;-69
2022/03/14 00:57:21;;;;;;;19.42;10.00;;;;;;;;;;1731046;82;21063;-70
2022/03/14 00:59:47;;;;;;;14.78;7.33;;;;;;;;;;1730895;83;21080;-69
2022/03/14 01:05:05;;;;;;;13.78;8.60;;;;;;;;;;1752381;80;21135;-68
2022/03/14 01:07:34;;;;;;;13.05;7.92;;;;;;;;;;1761687;81;21528;-68
2022/03/14 01:10:00;;;;;;;14.75;8.28;;;;;;;;;;1761510;81;21119;-69
2022/03/14 01:13:27;;;;;;;18.80;7.65;;;;;;;;;;1802074;79;22873;-69
2022/03/14 01:15:54;;;;;;;18.82;9.60;;;;;;;;;;1761707;81;21021;-69
2022/03/14 01:18:21;;;;;;;18.65;9.38;;;;;;;;;;1761902;81;22032;-69
2022/03/14 01:20:49;;;;;;;14.13;8.20;;;;;;;;;;1761905;81;21080;-69
2022/03/14 01:23:15;;;;;;;16.35;8.10;;;;;;;;;;1762030;81;21092;-69
2022/03/14 01:25:42;;;;;;;16.57;8.50;;;;;;;;;;1761968;81;21084;-69
2022/03/14 01:28:09;;;;;;;13.08;6.95;;;;;;;;;;1762075;81;20997;-69
2022/03/14 01:30:37;;;;;;;20.80;10.23;;;;;;;;;;1761582;81;21063;-69
2022/03/14 01:33:04;;;;;;;17.98;8.95;;;;;;;;;;1761957;81;21524;-69
2022/03/14 01:35:30;;;;;;;16.73;8.33;;;;;;;;;;1761769;81;21072;-69
2022/03/14 01:37:57;;;;;;;16.90;8.73;;;;;;;;;;1761874;81;21021;-69
2022/03/14 01:40:23;;;;;;;19.55;8.48;;;;;;;;;;1761752;81;21075;-69
2022/03/14 01:42:49;;;;;;;21.07;9.05;;;;;;;;;;1761886;81;21032;-70
2022/03/14 01:45:18;;;;;;;18.82;8.53;;;;;;;;;;1761793;81;21084;-69
2022/03/14 01:47:45;;;;;;;17.92;8.70;;;;;;;;;;1761764;81;21009;-69
2022/03/14 01:50:12;;;;;;;16.77;9.08;;;;;;;;;;1761852;81;21036;-69
2022/03/14 01:52:39;;;;;;;20.00;9.38;;;;;;;;;;1761765;81;21042;-69
2022/03/14 01:55:07;;;;;;;20.25;10.18;;;;;;;;;;1761780;81;21068;-69
2022/03/14 01:57:34;;;;;;;19.02;10.05;;;;;;;;;;1761472;81;21060;-69
2022/03/14 02:00:03;;;;;;;25.35;11.05;;;;;;;;;;1761755;81;21107;-69
2022/03/14 02:02:30;;;;;;;23.20;9.85;;;;;;;;;;1761834;81;21000;-69
2022/03/14 02:04:58;;;;;;;23.18;10.82;;;;;;;;;;1729222;81;21606;-69
2022/03/14 02:07:25;;;;;;;26.62;11.97;;;;;;;;;;1727994;83;21068;-69
2022/03/14 02:09:54;;;;;;;28.47;12.37;;;;;;;;;;1727913;83;21059;-69
2022/03/14 02:12:20;;;;;;;19.20;11.08;;;;;;;;;;1721396;83;21060;-69
2022/03/14 02:14:47;;;;;;;29.77;12.95;;;;;;;;;;1712522;83;21080;-69
2022/03/14 02:17:15;;;;;;;28.77;13.75;;;;;;;;;;1712900;84;21009;-69
2022/03/14 02:19:42;;;;;;;29.60;12.65;;;;;;;;;;1712608;83;21005;-69
2022/03/14 02:22:16;;;;;;;34.70;17.07;;;;;;;;;;1691400;84;21484;-69
2022/03/14 02:24:39;;;;;;;28.80;14.45;;;;;;;;;;1711071;83;21009;-69
2022/03/14 02:27:06;;;;;;;34.90;15.93;;;;;;;;;;1712369;83;21024;-69
2022/03/14 02:29:33;;;;;;;37.40;16.37;;;;;;;;;;1712152;84;21053;-70
2022/03/14 02:32:00;;;;;;;34.67;17.82;;;;;;;;;;1712436;83;21075;-70
2022/03/14 02:34:26;;;;;;;38.38;16.30;;;;;;;;;;1712620;84;21056;-69
2022/03/14 02:36:53;;;;;;;29.15;14.65;;;;;;;;;;1712699;84;21068;-69
2022/03/14 02:39:20;;;;;;;30.90;14.55;;;;;;;;;;1712314;84;21016;-69
2022/03/14 02:41:47;;;;;;;31.65;15.13;;;;;;;;;;1712414;84;21567;-70
2022/03/14 02:44:13;;;;;;;27.82;13.80;;;;;;;;;;1712327;83;21555;-69
2022/03/14 02:46:40;;;;;;;29.63;13.65;;;;;;;;;;1712559;84;21489;-70
2022/03/14 02:49:07;;;;;;;24.82;13.18;;;;;;;;;;1712591;83;21020;-69
2022/03/14 02:51:38;;;;;;;28.40;14.13;;;;;;;;;;1712445;83;21044;-69
2022/03/14 02:54:05;;;;;;;25.90;13.78;;;;;;;;;;1712361;83;21033;-69
2022/03/14 02:56:33;;;;;;;24.00;12.85;;;;;;;;;;1712331;84;21554;-69
2022/03/14 02:58:59;;;;;;;28.47;12.82;;;;;;;;;;1712323;84;21533;-69
2022/03/14 03:01:26;;;;;;;32.15;14.75;;;;;;;;;;1712004;83;21068;-70
2022/03/14 03:03:53;;;;;;;24.02;11.93;;;;;;;;;;1712179;82;21597;-69
2022/03/14 03:06:22;;;;;;;33.78;15.30;;;;;;;;;;1712227;84;21067;-70
2022/03/14 03:08:50;;;;;;;25.92;12.55;;;;;;;;;;1712328;84;21068;-70
2022/03/14 03:11:16;;;;;;;29.95;14.93;;;;;;;;;;1711954;83;21076;-69
2022/03/14 03:13:46;;;;;;;27.10;12.37;;;;;;;;;;1711986;83;21048;-69
2022/03/14 03:16:16;;;;;;;34.65;14.85;;;;;;;;;;1712019;83;21069;-70
2022/03/14 03:18:42;;;;;;;32.75;13.10;;;;;;;;;;1712373;84;21032;-69
2022/03/14 03:21:09;;;;;;;29.72;13.88;;;;;;;;;;1711964;84;21587;-69
2022/03/14 03:23:35;;;;;;;29.80;12.68;;;;;;;;;;1712268;83;21076;-69
2022/03/14 03:26:04;;;;;;;30.82;12.80;;;;;;;;;;1712208;83;21100;-69
2022/03/14 03:28:38;;;;;;;26.15;11.95;;;;;;;;;;1712130;84;21116;-69
2022/03/14 03:31:16;;;;;;;29.87;12.80;;;;;;;;;;1712206;83;21531;-68
2022/03/14 03:33:44;;;;;;;27.48;12.73;;;;;;;;;;1712079;83;21103;-68
2022/03/14 03:36:10;;;;;;;26.62;11.75;;;;;;;;;;1712301;84;21067;-68
2022/03/14 03:38:37;;;;;;;23.73;11.97;;;;;;;;;;1712306;83;21013;-68
2022/03/14 03:41:04;;;;;;;24.02;11.95;;;;;;;;;;1712350;84;21040;-68
2022/03/14 03:43:31;;;;;;;29.72;13.53;;;;;;;;;;1712051;84;21033;-68
2022/03/14 03:45:57;;;;;;;27.00;13.55;;;;;;;;;;1712401;84;21009;-68
2022/03/14 03:48:23;;;;;;;23.50;11.12;;;;;;;;;;1712115;84;21068;-68
2022/03/14 03:50:50;;;;;;;24.82;10.70;;;;;;;;;;1712416;83;21067;-68
2022/03/14 03:53:18;;;;;;;29.25;13.00;;;;;;;;;;1712177;84;21076;-68
2022/03/14 03:55:47;;;;;;;28.05;12.00;;;;;;;;;;1712318;83;21033;-68
2022/03/14 04:00:43;;;;;;;25.05;11.48;;;;;;;;;;1801137;79;22911;-68
2022/03/14 04:03:10;;;;;;;22.77;9.80;;;;;;;;;;1770462;80;21067;-68
2022/03/14 04:05:39;;;;;;;24.20;11.83;;;;;;;;;;1795892;80;21074;-68
2022/03/14 04:08:10;;;;;;;21.30;10.53;;;;;;;;;;1796097;80;21063;-69
2022/03/14 04:10:35;;;;;;;22.22;10.25;;;;;;;;;;1795846;80;21086;-69
2022/03/14 04:13:03;;;;;;;24.98;11.88;;;;;;;;;;1796232;80;21024;-68
2022/03/14 04:15:30;;;;;;;27.70;12.68;;;;;;;;;;1795858;80;21070;-68
2022/03/14 04:17:58;;;;;;;19.55;10.53;;;;;;;;;;1796249;80;21610;-68
2022/03/14 04:20:26;;;;;;;20.70;10.65;;;;;;;;;;1795932;80;21467;-68
2022/03/14 04:22:53;;;;;;;20.62;9.85;;;;;;;;;;1796064;80;21059;-69
2022/03/14 04:25:20;;;;;;;24.05;10.93;;;;;;;;;;1795824;80;21010;-69
2022/03/14 04:27:47;;;;;;;24.57;9.78;;;;;;;;;;1796067;79;21048;-69
2022/03/14 04:30:16;;;;;;;19.67;9.40;;;;;;;;;;1795939;80;21015;-69
2022/03/14 04:32:42;;;;;;;21.97;10.40;;;;;;;;;;1796058;80;21590;-69
2022/03/14 04:35:09;;;;;;;27.25;11.48;;;;;;;;;;1796013;80;20992;-69
2022/03/14 04:37:35;;;;;;;19.60;9.05;;;;;;;;;;1796070;80;21078;-69
2022/03/14 04:40:01;;;;;;;23.45;10.85;;;;;;;;;;1795710;80;21586;-69
2022/03/14 04:42:28;;;;;;;27.10;12.25;;;;;;;;;;1795793;80;21494;-69
2022/03/14 04:44:55;;;;;;;19.50;10.88;;;;;;;;;;1796037;80;21526;-69
2022/03/14 04:47:21;;;;;;;24.72;11.05;;;;;;;;;;1795933;80;21086;-69
2022/03/14 04:49:48;;;;;;;17.50;8.93;;;;;;;;;;1795993;80;21553;-69
2022/03/14 04:52:14;;;;;;;21.02;10.13;;;;;;;;;;1796158;79;20999;-69
2022/03/14 04:54:43;;;;;;;24.57;9.78;;;;;;;;;;1795955;80;21046;-69
2022/03/14 04:57:12;;;;;;;24.10;10.95;;;;;;;;;;1795901;80;21071;-69
2022/03/14 04:59:38;;;;;;;17.65;9.45;;;;;;;;;;1790947;80;21024;-69
2022/03/14 05:02:06;;;;;;;19.98;9.60;;;;;;;;;;1784797;80;21024;-69
2022/03/14 05:04:33;;;;;;;17.20;8.13;;;;;;;;;;1784609;80;21064;-69
2022/03/14 05:06:59;;;;;;;18.42;9.93;;;;;;;;;;1784838;80;21044;-69
2022/03/14 05:09:28;;;;;;;25.80;11.38;;;;;;;;;;1785003;80;21559;-69
2022/03/14 05:11:55;;;;;;;27.37;13.62;;;;;;;;;;1784399;80;21614;-69
2022/03/14 05:14:22;;;;;;;21.52;9.60;;;;;;;;;;1784398;80;21539;-69
2022/03/14 05:16:48;;;;;;;19.98;9.50;;;;;;;;;;1784294;80;21594;-69
2022/03/14 05:19:15;;;;;;;19.70;9.83;;;;;;;;;;1784586;80;20956;-69
2022/03/14 05:21:42;;;;;;;20.00;9.73;;;;;;;;;;1784202;80;21020;-69
2022/03/14 05:24:09;;;;;;;20.20;10.28;;;;;;;;;;1784285;80;21016;-69
2022/03/14 05:26:36;;;;;;;19.67;9.35;;;;;;;;;;1784291;80;21472;-69
2022/03/14 05:29:04;;;;;;;22.42;9.83;;;;;;;;;;1784280;80;21546;-69
2022/03/14 05:31:32;;;;;;;22.60;9.78;;;;;;;;;;1784223;80;21033;-69
2022/03/14 05:34:00;;;;;;;15.80;8.55;;;;;;;;;;1784326;80;21020;-69
2022/03/14 05:36:26;;;;;;;19.55;9.10;;;;;;;;;;1784395;80;21052;-69
2022/03/14 05:38:52;;;;;;;18.30;9.00;;;;;;;;;;1783947;80;21043;-69
2022/03/14 05:41:19;;;;;;;15.85;9.05;;;;;;;;;;1784427;80;21439;-69
2022/03/14 05:43:45;;;;;;;14.40;7.15;;;;;;;;;;1784330;80;21479;-69
2022/03/14 05:46:11;;;;;;;19.30;8.73;;;;;;;;;;1784388;80;21495;-69
2022/03/14 05:48:38;;;;;;;18.55;10.13;;;;;;;;;;1784143;80;21091;-69
2022/03/14 05:51:06;;;;;;;19.30;10.00;;;;;;;;;;1784408;80;20988;-69
2022/03/14 05:53:33;;;;;;;18.30;8.48;;;;;;;;;;1784197;80;21525;-70
2022/03/14 05:55:59;;;;;;;19.95;9.98;;;;;;;;;;1784210;80;21056;-68
2022/03/14 05:58:25;;;;;;;18.07;8.78;;;;;;;;;;1784408;80;20976;-69
2022/03/14 06:00:52;;;;;;;18.98;10.63;;;;;;;;;;1788887;80;21071;-69
2022/03/14 06:03:22;;;;;;;21.17;10.82;;;;;;;;;;1790098;80;21000;-68
2022/03/14 06:05:49;;;;;;;18.27;8.88;;;;;;;;;;1790035;80;20988;-69
2022/03/14 06:08:16;;;;;;;17.00;9.58;;;;;;;;;;1789963;80;21627;-68
2022/03/14 06:10:45;;;;;;;15.53;9.63;;;;;;;;;;1789854;80;21542;-69
2022/03/14 06:13:12;;;;;;;17.82;7.47;;;;;;;;;;1790098;80;21008;-68
2022/03/14 06:15:39;;;;;;;18.05;7.65;;;;;;;;;;1789980;80;20968;-69
2022/03/14 06:18:05;;;;;;;16.75;7.37;;;;;;;;;;1760351;80;20988;-68
2022/03/14 06:20:31;;;;;;;14.18;7.33;;;;;;;;;;1789945;80;21031;-68
2022/03/14 06:22:59;;;;;;;14.43;8.38;;;;;;;;;;1789898;80;21032;-68
2022/03/14 06:25:25;;;;;;;16.97;8.13;;;;;;;;;;1790131;80;20996;-70
2022/03/14 06:27:52;;;;;;;20.50;9.10;;;;;;;;;;1790073;80;21011;-67
2022/03/14 06:30:19;;;;;;;13.40;7.53;;;;;;;;;;1790119;80;21012;-68
2022/03/14 06:32:48;;;;;;;16.02;8.63;;;;;;;;;;1790073;80;21087;-68
2022/03/14 06:35:15;;;;;;;20.20;8.43;;;;;;;;;;1790253;80;21511;-68
2022/03/14 06:37:42;;;;;;;17.65;9.43;;;;;;;;;;1789987;80;21594;-68
2022/03/14 06:40:09;;;;;;;14.63;7.90;;;;;;;;;;1790156;80;21015;-69
2022/03/14 06:42:41;;;;;;;20.60;8.70;;;;;;;;;;1790386;80;21063;-68
2022/03/14 06:45:08;;;;;;;14.33;8.03;;;;;;;;;;1790119;80;20996;-68
2022/03/14 06:47:34;;;;;;;15.15;7.45;;;;;;;;;;1790243;80;20964;-68
2022/03/14 06:50:00;;;;;;;13.75;7.45;;;;;;;;;;1790305;80;21058;-68
2022/03/14 06:52:27;;;;;;;16.57;8.10;;;;;;;;;;1789916;80;21052;-68
2022/03/14 06:54:54;;;;;;;14.25;8.00;;;;;;;;;;1790218;80;21047;-68
2022/03/14 06:57:20;;;;;;;16.90;8.60;;;;;;;;;;1790129;80;21012;-68
2022/03/14 06:59:47;;;;;;;12.80;7.75;;;;;;;;;;1788432;80;21052;-69
2022/03/14 07:02:14;;;;;;;11.97;6.35;;;;;;;;;;1784105;80;21008;-68
2022/03/14 07:04:41;;;;;;;11.30;6.35;;;;;;;;;;1783990;80;21087;-69
2022/03/14 07:07:08;;;;;;;10.05;6.35;;;;;;;;;;1784567;80;21063;-68
2022/03/14 07:09:35;;;;;;;11.53;6.40;;;;;;;;;;1784424;80;21009;-69
2022/03/14 07:12:03;;;;;;;10.53;5.80;;;;;;;;;;1784180;80;21016;-68
2022/03/14 07:14:30;;;;;;;7.00;4.08;;;;;;;;;;1784392;80;21044;-69
2022/03/14 07:16:56;;;;;;;6.22;3.72;;;;;;;;;;1783956;80;21499;-69
2022/03/14 07:19:22;;;;;;;9.58;5.53;;;;;;;;;;1784219;80;21504;-69
2022/03/14 07:21:49;;;;;;;9.08;5.62;;;;;;;;;;1784245;80;21075;-69
2022/03/14 07:24:15;;;;;;;16.27;7.08;;;;;;;;;;1784153;80;21016;-69
2022/03/14 07:26:42;;;;;;;11.28;6.37;;;;;;;;;;1784194;80;21012;-69
2022/03/14 07:29:11;;;;;;;10.18;6.55;;;;;;;;;;1784022;80;21659;-68
2022/03/14 07:31:39;;;;;;;9.78;6.30;;;;;;;;;;1784376;80;21095;-68
2022/03/14 07:34:06;;;;;;;12.15;6.92;;;;;;;;;;1784222;80;21514;-68
2022/03/14 07:36:34;;;;;;;11.65;7.37;;;;;;;;;;1784164;80;21543;-68
2022/03/14 07:39:01;;;;;;;9.10;5.62;;;;;;;;;;1784229;80;21004;-69
2022/03/14 07:41:27;;;;;;;12.53;8.10;;;;;;;;;;1784019;80;21047;-69
2022/03/14 07:43:54;;;;;;;12.35;7.87;;;;;;;;;;1784113;80;21083;-68
2022/03/14 07:46:21;;;;;;;12.50;7.15;;;;;;;;;;1784321;80;21330;-69
2022/03/14 07:48:47;;;;;;;8.73;5.37;;;;;;;;;;1784257;80;20977;-68
2022/03/14 07:51:15;;;;;;;13.13;7.58;;;;;;;;;;1783871;80;20988;-68
2022/03/14 07:53:42;;;;;;;13.72;8.10;;;;;;;;;;1784247;80;21055;-68
2022/03/14 07:56:11;;;;;;;12.60;7.00;;;;;;;;;;1784224;80;21028;-68
2022/03/14 07:58:39;;;;;;;9.13;5.15;;;;;;;;;;1784236;80;21036;-68
2022/03/14 08:01:06;;;;;;;13.03;7.58;;;;;;;;;;1788037;80;21016;-69
2022/03/14 08:03:33;;;;;;;14.70;8.60;;;;;;;;;;1790205;80;21031;-68
2022/03/14 08:06:00;;;;;;;12.50;8.18;;;;;;;;;;1789724;80;21567;-69
2022/03/14 08:08:29;;;;;;;12.37;7.25;;;;;;;;;;1790067;80;21016;-68
2022/03/14 08:11:01;;;;;;;12.58;7.62;;;;;;;;;;1789814;80;21111;-68
2022/03/14 08:13:27;;;;;;;12.50;7.60;;;;;;;;;;1789831;80;21531;-68
2022/03/14 08:15:55;;;;;;;10.82;6.33;;;;;;;;;;1790085;80;21131;-68
2022/03/14 08:18:23;;;;;;;8.55;5.30;;;;;;;;;;1789789;80;21015;-67
2022/03/14 08:20:56;;;;;;;11.00;6.67;;;;;;;;;;1790041;80;21042;-69
2022/03/14 08:23:19;;;;;;;12.68;7.22;;;;;;;;;;1789354;80;21370;-69
2022/03/14 08:25:46;;;;;;;12.50;8.33;;;;;;;;;;1790072;80;21046;-69
2022/03/14 08:28:12;;;;;;;12.73;8.25;;;;;;;;;;1789973;80;21542;-70
2022/03/14 08:30:39;;;;;;;14.90;8.98;;;;;;;;;;1790297;80;21542;-70
2022/03/14 08:33:05;;;;;;;19.92;13.25;;;;;;;;;;1790328;80;20992;-69
2022/03/14 08:35:32;;;;;;;21.02;14.05;;;;;;;;;;1761417;80;21561;-69
2022/03/14 08:37:58;;;;;;;14.65;8.05;;;;;;;;;;1790138;80;21003;-70
2022/03/14 08:40:25;;;;;;;14.68;9.40;;;;;;;;;;1790006;80;21046;-69
2022/03/14 08:42:52;;;;;;;8.45;5.17;;;;;;;;;;1790033;80;21059;-69
2022/03/14 08:45:21;;;;;;;12.05;7.22;;;;;;;;;;1789709;80;21000;-69
2022/03/14 08:47:47;;;;;;;15.88;10.45;;;;;;;;;;1790170;80;20956;-69
2022/03/14 08:50:14;;;;;;;13.80;8.35;;;;;;;;;;1789791;80;21515;-69
2022/03/14 08:52:41;;;;;;;12.00;6.72;;;;;;;;;;1790151;80;21007;-69
2022/03/14 08:55:07;;;;;;;9.98;6.35;;;;;;;;;;1790093;80;21495;-70
2022/03/14 08:57:34;;;;;;;12.40;7.37;;;;;;;;;;1790178;80;21530;-69
2022/03/14 09:00:01;;;;;;;11.25;6.30;;;;;;;;;;1789691;80;21135;-70
2022/03/14 09:02:27;;;;;;;10.58;7.60;;;;;;;;;;1790143;80;20993;-70
2022/03/14 09:04:54;;;;;;;12.78;8.78;;;;;;;;;;1789775;80;21122;-69
2022/03/14 09:07:24;;;;;;;9.88;6.40;;;;;;;;;;1790217;80;20999;-69
2022/03/14 09:09:50;;;;;;;11.68;7.10;;;;;;;;;;1790158;80;20988;-70
2022/03/14 09:12:20;;;;;;;18.00;8.90;;;;;;;;;;1790076;80;21024;-70
2022/03/14 09:14:46;;;;;;;18.15;11.53;;;;;;;;;;1790352;80;20985;-70
2022/03/14 09:17:13;;;;;;;16.70;9.28;;;;;;;;;;1790302;80;20993;-69
2022/03/14 09:19:40;;;;;;;25.62;12.50;;;;;;;;;;1790173;80;21579;-69
2022/03/14 09:22:09;;;;;;;14.10;8.15;;;;;;;;;;1790056;80;21047;-69
2022/03/14 09:24:37;;;;;;;12.13;6.83;;;;;;;;;;1790174;80;21020;-70
2022/03/14 09:27:04;;;;;;;16.75;8.55;;;;;;;;;;1790118;80;21008;-69
2022/03/14 09:29:30;;;;;;;17.80;8.88;;;;;;;;;;1790302;80;21078;-68
2022/03/14 09:31:57;;;;;;;15.05;6.92;;;;;;;;;;1790017;80;21004;-68
2022/03/14 09:34:24;;;;;;;14.23;8.43;;;;;;;;;;1790142;80;21056;-68
2022/03/14 09:36:51;;;;;;;19.87;11.28;;;;;;;;;;1789967;80;21063;-68
2022/03/14 09:39:18;;;;;;;19.30;10.15;;;;;;;;;;1789921;80;21035;-69
2022/03/14 09:41:46;;;;;;;11.55;7.33;;;;;;;;;;1790180;80;21012;-69
2022/03/14 09:44:14;;;;;;;17.05;10.68;;;;;;;;;;1790320;80;21004;-70
2022/03/14 09:46:41;;;;;;;17.02;9.80;;;;;;;;;;1790204;80;21020;-68
2022/03/14 09:49:09;;;;;;;16.48;9.98;;;;;;;;;;1790358;80;20983;-69
2022/03/14 09:51:39;;;;;;;17.20;9.53;;;;;;;;;;1790151;80;21020;-69
2022/03/14 09:54:06;;;;;;;26.80;13.05;;;;;;;;;;1790036;80;21024;-68
2022/03/14 09:56:33;;;;;;;24.95;13.53;;;;;;;;;;1790041;80;21056;-68
2022/03/14 09:59:01;;;;;;;24.82;13.88;;;;;;;;;;1790175;80;21051;-68
2022/03/14 10:01:29;;;;;;;16.97;8.25;;;;;;;;;;1786240;80;21228;-69
2022/03/14 10:03:56;;;;;;;9.13;5.45;;;;;;;;;;1784285;80;21116;-69
2022/03/14 10:06:23;;;;;;;11.45;7.33;;;;;;;;;;1784350;80;21555;-68
2022/03/14 10:08:49;;;;;;;10.48;6.17;;;;;;;;;;1784345;80;21028;-69
2022/03/14 10:11:17;;;;;;;8.88;5.53;;;;;;;;;;1784211;80;21039;-69
2022/03/14 10:13:44;;;;;;;8.90;5.47;;;;;;;;;;1784007;80;21503;-69
2022/03/14 10:16:10;;;;;;;9.05;5.10;;;;;;;;;;1784372;80;21003;-69
2022/03/14 10:18:39;;;;;;;9.80;5.97;;;;;;;;;;1783997;80;21059;-69
2022/03/14 10:21:06;;;;;;;12.98;6.28;;;;;;;;;;1781639;80;21059;-68
2022/03/14 10:23:36;;;;;;;13.30;7.42;;;;;;;;;;1784394;80;21433;-68
2022/03/14 10:26:05;;;;;;;13.60;7.65;;;;;;;;;;1783940;80;21020;-68
2022/03/14 10:28:33;;;;;;;14.15;7.70;;;;;;;;;;1784363;80;20992;-68
2022/03/14 10:31:00;;;;;;;9.30;5.67;;;;;;;;;;1783974;80;21092;-67
2022/03/14 10:33:29;;;;;;;9.05;6.10;;;;;;;;;;1784324;80;21008;-68
2022/03/14 10:35:55;;;;;;;10.03;5.60;;;;;;;;;;1784172;80;21052;-68
2022/03/14 10:38:24;;;;;;;8.65;4.45;;;;;;;;;;1784382;80;21519;-68
2022/03/14 10:40:51;;;;;;;7.58;4.20;;;;;;;;;;1783987;80;21091;-69
2022/03/14 10:43:25;;;;;;;8.08;4.95;;;;;;;;;;1784325;80;21020;-68
2022/03/14 10:45:53;;;;;;;7.00;4.08;;;;;;;;;;1784046;80;21542;-69
2022/03/14 10:48:33;;;;;;;7.75;4.28;;;;;;;;;;1784292;80;20999;-69
2022/03/14 10:51:03;;;;;;;7.65;4.28;;;;;;;;;;1783843;80;21090;-69
2022/03/14 10:53:30;;;;;;;4.30;3.40;;;;;;;;;;1784461;80;21515;-69
2022/03/14 10:55:57;;;;;;;5.78;3.42;;;;;;;;;;1783940;80;21542;-68
2022/03/14 10:58:26;;;;;;;7.15;3.92;;;;;;;;;;1784264;80;21079;-69
2022/03/14 11:00:58;;;;;;;6.67;4.70;;;;;;;;;;1785366;80;21590;-69
2022/03/14 11:03:29;;;;;;;6.40;3.70;;;;;;;;;;1789952;80;21044;-69
2022/03/14 11:06:02;;;;;;;6.03;4.67;;;;;;;;;;1790020;80;21575;-69
2022/03/14 11:08:31;;;;;;;8.73;4.20;;;;;;;;;;1790208;80;21094;-69
2022/03/14 11:10:58;;;;;;;6.75;3.90;;;;;;;;;;1789797;80;21048;-69
2022/03/14 11:13:26;;;;;;;7.55;5.15;;;;;;;;;;1789411;80;21051;-70
2022/03/14 11:15:53;;;;;;;10.85;4.30;;;;;;;;;;1776205;80;21091;-70
2022/03/14 11:18:19;;;;;;;6.87;3.92;;;;;;;;;;1765807;80;21039;-69
2022/03/14 11:20:46;;;;;;;6.42;3.65;;;;;;;;;;1787111;80;21102;-69
2022/03/14 11:23:14;;;;;;;7.40;3.98;;;;;;;;;;1771892;80;21024;-69
2022/03/14 11:25:40;;;;;;;7.83;5.08;;;;;;;;;;1758868;81;21066;-65
2022/03/14 11:28:06;;;;;;;7.20;4.28;;;;;;;;;;1762230;80;21067;-67
2022/03/14 11:30:35;;;;;;;6.47;4.25;;;;;;;;;;1774465;80;21063;-67
2022/03/14 11:33:03;;;;;;;6.45;3.72;;;;;;;;;;1790136;80;21059;-67
2022/03/14 11:35:30;;;;;;;7.65;4.53;;;;;;;;;;1781404;80;21003;-65
2022/03/14 11:37:57;;;;;;;8.35;3.92;;;;;;;;;;1761087;80;21016;-66
2022/03/14 11:40:24;;;;;;;7.10;4.33;;;;;;;;;;1773005;80;21000;-65
2022/03/14 11:42:52;;;;;;;7.85;4.20;;;;;;;;;;1771191;80;21009;-66
2022/03/14 11:45:19;;;;;;;6.28;3.62;;;;;;;;;;1779508;80;21488;-66
2022/03/14 11:47:46;;;;;;;7.95;4.67;;;;;;;;;;1765504;80;21039;-66
2022/03/14 11:50:13;;;;;;;13.00;5.17;;;;;;;;;;1775023;80;21024;-67
2022/03/14 11:52:42;;;;;;;10.38;7.10;;;;;;;;;;1731930;80;21705;-67
2022/03/14 11:55:19;;;;;;;10.78;6.45;;;;;;;;;;1771408;80;21539;-66
2022/03/14 11:57:47;;;;;;;13.22;8.53;;;;;;;;;;1776879;80;20987;-66
2022/03/14 12:00:27;;;;;;;11.85;6.90;;;;;;;;;;1772669;80;20965;-67
2022/03/14 12:02:53;;;;;;;14.83;10.18;;;;;;;;;;1709331;82;21126;-65
2022/03/14 12:05:20;;;;;;;13.00;7.55;;;;;;;;;;1749435;80;21012;-65
2022/03/14 12:10:37;;;;;;;8.85;6.15;;;;;;;;;;1738116;79;21068;-68
2022/03/14 12:13:06;;;;;;;8.60;5.67;;;;;;;;;;1723591;83;21055;-66
2022/03/14 12:15:38;;;;;;;11.35;5.62;;;;;;;;;;1723659;83;21075;-66
2022/03/14 12:18:29;;;;;;;12.73;7.35;;;;;;;;;;1722429;83;21542;-66
2022/03/14 12:20:59;;;;;;;12.82;7.00;;;;;;;;;;1723540;83;21028;-66
2022/03/14 12:23:29;;;;;;;12.18;7.08;;;;;;;;;;1724189;83;21036;-66
2022/03/14 12:26:00;;;;;;;11.75;7.85;;;;;;;;;;1723252;83;21027;-66
2022/03/14 12:28:33;;;;;;;9.80;6.10;;;;;;;;;;1724059;83;21103;-66
2022/03/14 12:31:05;;;;;;;8.28;5.15;;;;;;;;;;1724260;83;21000;-72
2022/03/14 12:33:33;;;;;;;10.10;6.33;;;;;;;;;;1724236;83;21032;-71
2022/03/14 12:36:18;;;;;;;12.40;7.20;;;;;;;;;;1723891;83;21582;-71
2022/03/14 12:39:06;;;;;;;13.25;8.08;;;;;;;;;;1723743;83;21032;-71
2022/03/14 12:41:32;;;;;;;14.47;8.48;;;;;;;;;;1713166;83;21012;-71
2022/03/14 12:43:59;;;;;;;12.53;7.78;;;;;;;;;;1724126;83;21028;-71
2022/03/14 12:46:26;;;;;;;10.25;6.60;;;;;;;;;;1713977;83;21566;-72
2022/03/14 12:48:54;;;;;;;8.30;5.22;;;;;;;;;;1723717;83;21075;-71
2022/03/14 12:51:24;;;;;;;8.05;6.42;;;;;;;;;;1717790;83;21014;-71
2022/03/14 12:53:52;;;;;;;8.20;5.28;;;;;;;;;;1719197;83;21032;-71
2022/03/14 12:56:20;;;;;;;9.50;6.58;;;;;;;;;;1722273;83;21027;-72
2022/03/14 12:58:55;;;;;;;13.22;7.20;;;;;;;;;;1726100;83;21036;-72
2022/03/14 13:01:22;;;;;;;12.98;7.80;;;;;;;;;;1692176;85;21065;-72
2022/03/14 13:03:49;;;;;;;12.05;8.60;;;;;;;;;;1663176;86;21107;-72
2022/03/14 13:06:15;;;;;;;17.32;10.55;;;;;;;;;;1692281;85;21044;-72
2022/03/14 13:08:49;;;;;;;14.50;8.68;;;;;;;;;;1692367;84;21036;-72
2022/03/14 13:11:15;;;;;;;17.85;10.65;;;;;;;;;;1698991;82;21084;-72
2022/03/14 13:13:44;;;;;;;15.53;10.28;;;;;;;;;;1759654;81;21058;-72
2022/03/14 13:16:22;;;;;;;14.25;8.08;;;;;;;;;;1759693;81;21058;-72
2022/03/14 13:18:53;;;;;;;20.45;10.82;;;;;;;;;;1695113;84;21049;-71
2022/03/14 13:21:23;;;;;;;13.40;8.60;;;;;;;;;;1759854;81;21090;-71
2022/03/14 13:23:53;;;;;;;16.25;9.20;;;;;;;;;;1759930;81;20983;-71
2022/03/14 13:26:21;;;;;;;17.35;10.13;;;;;;;;;;1759754;81;21010;-72
2022/03/14 13:30:20;;;;;;;14.50;9.23;;;;;;;;;;1819641;79;22762;-71
2022/03/14 13:32:47;;;;;;;13.38;8.25;;;;;;;;;;1793016;80;21508;-71
2022/03/14 13:35:14;;;;;;;13.25;8.35;;;;;;;;;;1792785;80;21064;-71
2022/03/14 13:37:41;;;;;;;12.90;8.70;;;;;;;;;;1793054;80;21020;-72
2022/03/14 13:40:18;;;;;;;12.85;8.08;;;;;;;;;;1793067;80;21013;-71
2022/03/14 13:42:45;;;;;;;12.15;6.95;;;;;;;;;;1793016;80;21024;-71
2022/03/14 13:45:13;;;;;;;11.28;5.95;;;;;;;;;;1792722;79;21056;-72
2022/03/14 13:47:40;;;;;;;10.00;6.12;;;;;;;;;;1792995;80;21488;-72
2022/03/14 13:50:06;;;;;;;11.83;8.10;;;;;;;;;;1792938;80;21075;-70
2022/03/14 13:52:34;;;;;;;15.20;7.87;;;;;;;;;;1792920;80;21091;-72
2022/03/14 13:55:01;;;;;;;10.85;7.45;;;;;;;;;;1793114;79;21491;-70
2022/03/14 13:57:28;;;;;;;9.50;5.45;;;;;;;;;;1791203;80;21071;-71
2022/03/14 13:59:55;;;;;;;10.93;7.50;;;;;;;;;;1792907;80;21084;-71
2022/03/14 14:02:23;;;;;;;10.93;7.53;;;;;;;;;;1792995;80;20957;-71
2022/03/14 14:04:51;;;;;;;10.78;6.85;;;;;;;;;;1790181;80;21032;-71
2022/03/14 14:07:19;;;;;;;8.78;6.00;;;;;;;;;;1792940;80;21024;-71
2022/03/14 14:09:48;;;;;;;9.83;7.08;;;;;;;;;;1792659;80;21500;-71
2022/03/14 14:12:21;;;;;;;11.60;6.22;;;;;;;;;;1792982;80;22086;-71
2022/03/14 14:14:56;;;;;;;10.35;7.03;;;;;;;;;;1792995;80;21040;-71
2022/03/14 14:17:23;;;;;;;8.10;5.55;;;;;;;;;;1792954;80;21024;-72
2022/03/14 14:20:09;;;;;;;9.23;6.75;;;;;;;;;;1792991;80;21056;-71
2022/03/14 14:22:39;;;;;;;10.23;8.25;;;;;;;;;;1793083;80;20969;-70
2022/03/14 14:25:08;;;;;;;9.45;5.97;;;;;;;;;;1793181;80;21047;-71
2022/03/14 14:27:34;;;;;;;9.90;5.92;;;;;;;;;;1790659;80;21040;-71
2022/03/14 14:30:00;;;;;;;12.33;6.53;;;;;;;;;;1760132;80;21033;-71
2022/03/14 14:32:29;;;;;;;11.53;7.92;;;;;;;;;;1789757;80;21060;-71
2022/03/14 14:34:57;;;;;;;10.60;6.90;;;;;;;;;;1790159;80;20962;-70
2022/03/14 14:37:24;;;;;;;10.00;6.72;;;;;;;;;;1789656;80;21056;-71
2022/03/14 14:39:54;;;;;;;9.80;6.50;;;;;;;;;;1789702;80;21536;-71
2022/03/14 14:42:20;;;;;;;10.20;6.85;;;;;;;;;;1789353;80;21040;-71